Time,TemperatureF,DewpointF,PressureIn,WindDirection,WindDirectionDegrees,WindSpeedMPH,WindSpeedGustMPH,Humidity,HourlyPrecipIn,Conditions,Clouds,dailyrainin,SoftwareType,DateUTC
2013-08-29 00:23:00,81.0,70.0,29.95,ESE,122,0.0,0.0,70,0.00,,,0.00,,2013-08-29 05:23:00,
2013-08-29 00:52:00,80.0,68.0,29.95,ESE,122,0.0,0.0,67,0.00,,,0.00,,2013-08-29 05:52:00,
2013-08-29 01:22:00,78.0,68.0,29.95,ESE,122,0.0,0.0,72,0.00,,,0.00,,2013-08-29 06:22:00,
2013-08-29 01:52:00,79.0,68.0,29.95,ESE,122,0.0,0.0,70,0.00,,,0.00,,2013-08-29 06:52:00,
2013-08-29 02:12:00,79.0,71.0,29.95,ESE,122,0.0,0.0,77,0.00,,,0.00,,2013-08-29 07:12:00,
2013-08-29 02:22:00,79.0,71.0,29.95,ESE,122,0.0,0.0,77,0.00,,,0.00,,2013-08-29 07:22:00,
2013-08-29 02:53:00,78.0,71.0,29.96,ESE,122,0.0,0.0,78,0.00,,,0.00,,2013-08-29 07:53:00,
2013-08-29 03:22:00,78.0,68.0,29.95,ESE,122,0.0,0.0,72,0.00,,,0.00,,2013-08-29 08:22:00,
2013-08-29 03:52:00,79.0,68.0,29.95,ESE,122,0.0,0.0,69,0.00,,,0.00,,2013-08-29 08:52:00,
2013-08-29 04:22:00,78.0,68.0,29.96,ESE,122,0.0,0.0,71,0.00,,,0.00,,2013-08-29 09:22:00,
2013-08-29 04:34:00,78.0,68.0,29.96,ESE,122,0.0,0.0,71,0.00,,,0.00,,2013-08-29 09:34:00,
2013-08-29 04:54:00,78.0,68.0,29.96,ESE,122,0.0,0.0,71,0.00,,,0.00,,2013-08-29 09:54:00,
2013-08-29 05:24:00,76.0,69.0,29.96,ESE,122,0.0,0.0,79,0.00,,,0.00,,2013-08-29 10:24:00,
2013-08-29 05:53:00,76.0,69.0,29.96,ESE,122,0.0,0.0,79,0.00,,,0.00,,2013-08-29 10:53:00,
2013-08-29 06:22:00,76.0,69.0,29.97,ESE,122,0.0,0.0,79,0.00,,,0.00,,2013-08-29 11:22:00,
2013-08-29 06:52:00,75.0,69.0,29.97,ESE,122,0.0,0.0,81,0.00,,,0.00,,2013-08-29 11:52:00,
2013-08-29 07:22:00,74.0,68.0,29.99,East,82,2.0,3.0,81,0.00,,,0.00,,2013-08-29 12:22:00,
2013-08-29 07:52:00,76.0,69.0,29.99,SE,128,1.0,2.0,79,0.00,,,0.00,,2013-08-29 12:52:00,
2013-08-29 08:12:00,76.0,69.0,29.99,SE,128,1.0,2.0,79,0.00,,,0.00,,2013-08-29 13:12:00,
2013-08-29 08:22:00,78.0,69.0,30.00,SSE,152,2.0,5.0,73,0.00,,,0.00,,2013-08-29 13:22:00,
2013-08-29 08:32:00,78.0,69.0,30.00,SSE,152,2.0,5.0,73,0.00,,,0.00,,2013-08-29 13:32:00,
2013-08-29 08:42:00,78.0,69.0,30.00,SSE,152,2.0,5.0,73,0.00,,,0.00,,2013-08-29 13:42:00,
2013-08-29 08:52:00,82.0,70.0,30.01,SSE,166,2.0,3.0,67,0.00,,,0.00,,2013-08-29 13:52:00,
2013-08-29 09:21:00,84.0,70.0,30.01,SE,135,1.0,3.0,63,0.00,,,0.00,,2013-08-29 14:21:00,
2013-08-29 09:52:00,86.0,69.0,30.01,SSW,193,0.0,2.0,58,0.00,,,0.00,,2013-08-29 14:52:00,
2013-08-29 10:12:00,88.0,69.0,30.01,WNW,286,5.0,6.0,54,0.00,,,0.00,,2013-08-29 15:12:00,
2013-08-29 10:22:00,88.0,69.0,30.01,WNW,286,5.0,6.0,54,0.00,,,0.00,,2013-08-29 15:22:00,
2013-08-29 10:33:00,88.0,69.0,30.01,WNW,286,5.0,6.0,54,0.00,,,0.00,,2013-08-29 15:33:00,
2013-08-29 11:13:00,91.0,70.0,30.01,West,281,4.0,7.0,51,0.00,,,0.00,,2013-08-29 16:13:00,
2013-08-29 11:24:00,91.0,70.0,30.01,West,281,4.0,7.0,51,0.00,,,0.00,,2013-08-29 16:24:00,
2013-08-29 11:54:00,94.0,71.0,30.01,West,266,2.0,7.0,47,0.00,,,0.00,,2013-08-29 16:54:00,
2013-08-29 12:22:00,94.0,67.0,30.00,NW,317,1.0,8.0,41,0.00,,,0.00,,2013-08-29 17:22:00,
2013-08-29 12:52:00,95.0,68.0,29.98,South,169,1.0,5.0,41,0.00,,,0.00,,2013-08-29 17:52:00,
2013-08-29 13:21:00,97.0,67.0,29.97,SW,217,3.0,6.0,38,0.00,,,0.00,,2013-08-29 18:21:00,
2013-08-29 13:52:00,98.0,66.0,29.96,West,280,7.0,12.0,35,0.00,,,0.00,,2013-08-29 18:52:00,
2013-08-29 14:11:00,96.0,66.0,29.95,West,272,3.0,8.0,38,0.00,,,0.00,,2013-08-29 19:11:00,
2013-08-29 14:22:00,96.0,66.0,29.95,West,272,3.0,8.0,38,0.00,,,0.00,,2013-08-29 19:22:00,
2013-08-29 14:53:00,98.0,66.0,29.95,West,272,7.0,10.0,36,0.00,,,0.00,,2013-08-29 19:53:00,
2013-08-29 15:22:00,100.0,69.0,29.93,West,261,4.0,8.0,37,0.00,,,0.00,,2013-08-29 20:22:00,
2013-08-29 15:52:00,100.0,66.0,29.92,West,270,6.0,12.0,33,0.00,,,0.00,,2013-08-29 20:52:00,
2013-08-29 16:22:00,100.0,66.0,29.91,SSW,196,2.0,7.0,33,0.00,,,0.00,,2013-08-29 21:22:00,
2013-08-29 16:54:00,100.0,65.0,29.90,SSW,208,4.0,7.0,32,0.00,,,0.00,,2013-08-29 21:54:00,
2013-08-29 17:24:00,100.0,64.0,29.89,WNW,296,5.0,10.0,31,0.00,,,0.00,,2013-08-29 22:24:00,
2013-08-29 17:53:00,100.0,65.0,29.89,NW,321,2.0,6.0,32,0.00,,,0.00,,2013-08-29 22:53:00,
2013-08-29 18:22:00,99.0,64.0,29.88,WNW,297,3.0,8.0,32,0.00,,,0.00,,2013-08-29 23:22:00,
2013-08-29 18:42:00,98.0,63.0,29.89,NNW,334,1.0,7.0,32,0.00,,,0.00,,2013-08-29 23:42:00,
2013-08-29 18:53:00,98.0,63.0,29.89,NNW,334,1.0,7.0,32,0.00,,,0.00,,2013-08-29 23:53:00,
2013-08-29 19:22:00,97.0,65.0,29.88,WNW,282,0.0,3.0,35,0.00,,,0.00,,2013-08-30 00:22:00,
2013-08-29 19:52:00,96.0,64.0,29.88,WNW,282,0.0,0.0,35,0.00,,,0.00,,2013-08-30 00:52:00,
2013-08-29 20:01:00,96.0,64.0,29.88,WNW,282,0.0,0.0,35,0.00,,,0.00,,2013-08-30 01:01:00,
2013-08-29 20:12:00,96.0,64.0,29.88,WNW,282,0.0,0.0,35,0.00,,,0.00,,2013-08-30 01:12:00,
2013-08-29 20:22:00,96.0,64.0,29.88,WNW,282,0.0,0.0,35,0.00,,,0.00,,2013-08-30 01:22:00,
2013-08-29 20:52:00,89.0,67.0,29.89,WNW,282,0.0,0.0,48,0.00,,,0.00,,2013-08-30 01:52:00,
2013-08-29 21:21:00,88.0,67.0,29.89,WNW,282,0.0,0.0,50,0.00,,,0.00,,2013-08-30 02:21:00,
2013-08-29 21:52:00,86.0,66.0,29.89,WNW,282,0.0,0.0,52,0.00,,,0.00,,2013-08-30 02:52:00,
2013-08-29 22:12:00,85.0,69.0,29.90,ESE,109,0.0,1.0,59,0.00,,,0.00,,2013-08-30 03:12:00,
2013-08-29 22:22:00,85.0,69.0,29.90,ESE,109,0.0,1.0,59,0.00,,,0.00,,2013-08-30 03:22:00,
2013-08-29 22:55:00,85.0,68.0,29.90,ESE,109,0.0,0.0,57,0.00,,,0.00,,2013-08-30 03:55:00,
2013-08-29 23:24:00,84.0,68.0,29.90,ESE,109,0.0,0.0,58,0.00,,,0.00,,2013-08-30 04:24:00,
2013-08-29 23:54:00,83.0,67.0,29.90,ESE,109,0.0,0.0,59,0.00,,,0.00,,2013-08-30 04:54:00,